Terminal Aerodrome Forecast
Issued by NWS

Home | Current Version | Previous Version | Text Only | Print | Product List | Glossary On
Versions: 1 2 3 4 5 6 7 8 9 10 11 12 13 14 15 16 17 18 19 20 21 22 23 24 25 26 27 28 29 30 31 32 33 34
000
FTUS44 KOHX 301700
TAFCKV
TAF
KCKV 301720Z 3018/3118 19012G21KT P6SM VCSH BKN035 BKN120
      TEMPO 3019/3023 2SM TSRA BKN030CB
     FM310100 23008KT P6SM SCT035
     FM310800 24006KT 3SM BR SCT008 BKN015=

USA.gov is the U.S. government's official web portal to all federal, state and local government web resources and services.